Česky Dansk Deutsch English Español Suomi Français Magyar Italiano Nederlands norsk Polski Português svenska Türkçe

 

Het Weer

Jijel Achouat (Algeria)

12:00, 18 augustus 2016 (GMT)

NWNNE
WE
SWSSE
Home            
Jijel Achouat Bejaia Setif Constantine Skikda Batna Annaba Bou-Saada Dar-El-Beida Biskra Tebessa Tabarka Jendouba Djelfa Bizerte Menorca / Mahon El Oued Gafsa Cagliari / Elmas Decimomannu Tozeur Tunis-Carthage Capo Frasca

Om een weerknop op uw website of weblog te plaatsen, copieer onderstaande code en plak die in uw pagina. In het eerste vakje staat HTML-code, in het tweede vakje UBB-code.


Add to Google

Details

Wind speed:3 bf, 8 kn, 4.1 m/s, 9.2 miles/h, 14.8 km/h
Wind direction:N, 360°
Visibility:Greater than 10000 m, 10 km, 32800 ft, 6.2 miles
Clouds:CAVOC
Temperature:32°C, 90°F
Gefühlte Temperatur:33°C, 92°F
Dew-point:18°C, 64°F
Atmospheric pressure:1012 hPa, 759.1 mmHg, 29.88 inHg, 0.999 atm
Relative humidity:43.4 %
METAR:DAAV 181200Z 36008KT CAVOK 32/18 Q1012

Snelkoppelingen

Actuele weersinformatie van de hele wereld. Voeg locaties toe met het plus (+) symbool. Deze snelkoppelingen kunnen worden toegevoegd aan Google.

Lid van de Technetium groep

website free tracking
StatCounter NetStat W3C Validator

07-10-2022 03:07:51
astro.technetium.be money.technetium.be phote.technetium.be tafeltennistafel.technetium.be www.ligfiets.net